sensor_id;sensor_type;location;lat;lon;timestamp;pressure;altitude;pressure_sealevel;temperature;humidity
4745;BME280;2386;42.138;24.746;2023-05-29T00:00:30;99263.09;;;18.48;100.00
4745;BME280;2386;42.138;24.746;2023-05-29T00:02:55;99263.03;;;18.53;100.00
4745;BME280;2386;42.138;24.746;2023-05-29T00:05:20;99265.16;;;18.61;100.00
4745;BME280;2386;42.138;24.746;2023-05-29T00:07:46;99264.88;;;18.57;100.00
4745;BME280;2386;42.138;24.746;2023-05-29T00:10:13;99263.47;;;18.60;100.00
4745;BME280;2386;42.138;24.746;2023-05-29T00:12:38;99268.41;;;18.63;100.00
4745;BME280;2386;42.138;24.746;2023-05-29T00:15:05;99274.38;;;18.70;100.00
4745;BME280;2386;42.138;24.746;2023-05-29T00:17:31;99282.63;;;18.70;100.00
4745;BME280;2386;42.138;24.746;2023-05-29T00:19:59;99278.31;;;18.59;100.00
4745;BME280;2386;42.138;24.746;2023-05-29T00:22:26;99269.94;;;18.50;100.00
4745;BME280;2386;42.138;24.746;2023-05-29T00:24:52;99280.16;;;18.45;100.00
4745;BME280;2386;42.138;24.746;2023-05-29T00:27:18;99264.50;;;18.45;100.00
4745;BME280;2386;42.138;24.746;2023-05-29T00:29:45;99266.19;;;18.41;100.00
4745;BME280;2386;42.138;24.746;2023-05-29T00:32:10;99267.25;;;18.45;100.00
4745;BME280;2386;42.138;24.746;2023-05-29T00:34:36;99257.00;;;18.51;100.00
4745;BME280;2386;42.138;24.746;2023-05-29T00:37:01;99250.19;;;18.48;100.00
4745;BME280;2386;42.138;24.746;2023-05-29T00:39:27;99258.94;;;18.50;100.00
4745;BME280;2386;42.138;24.746;2023-05-29T00:41:52;99258.66;;;18.52;100.00
4745;BME280;2386;42.138;24.746;2023-05-29T00:44:18;99263.03;;;18.53;100.00
4745;BME280;2386;42.138;24.746;2023-05-29T00:46:45;99268.63;;;18.43;100.00
4745;BME280;2386;42.138;24.746;2023-05-29T00:49:12;99261.97;;;18.49;100.00
4745;BME280;2386;42.138;24.746;2023-05-29T00:51:38;99253.09;;;18.57;100.00
4745;BME280;2386;42.138;24.746;2023-05-29T00:54:07;99252.88;;;18.53;100.00
4745;BME280;2386;42.138;24.746;2023-05-29T00:56:34;99254.97;;;18.61;100.00
4745;BME280;2386;42.138;24.746;2023-05-29T00:59:00;99245.56;;;18.67;100.00
4745;BME280;2386;42.138;24.746;2023-05-29T01:01:26;99247.25;;;18.63;100.00
4745;BME280;2386;42.138;24.746;2023-05-29T01:03:55;99251.41;;;18.61;100.00
4745;BME280;2386;42.138;24.746;2023-05-29T01:06:23;99243.56;;;18.49;100.00
4745;BME280;2386;42.138;24.746;2023-05-29T01:08:48;99250.81;;;18.64;100.00
4745;BME280;2386;42.138;24.746;2023-05-29T01:11:49;99252.88;;;18.53;100.00
4745;BME280;2386;42.138;24.746;2023-05-29T01:14:25;99255.31;;;18.55;100.00
4745;BME280;2386;42.138;24.746;2023-05-29T01:17:17;99249.47;;;18.61;100.00
4745;BME280;2386;42.138;24.746;2023-05-29T01:20:08;99247.00;;;18.60;100.00
4745;BME280;2386;42.138;24.746;2023-05-29T01:28:28;99255.50;;;18.63;100.00
4745;BME280;2386;42.138;24.746;2023-05-29T01:30:57;99238.22;;;18.58;100.00
4745;BME280;2386;42.138;24.746;2023-05-29T01:33:23;99244.84;;;18.57;100.00
4745;BME280;2386;42.138;24.746;2023-05-29T01:35:51;99259.06;;;18.64;100.00
4745;BME280;2386;42.138;24.746;2023-05-29T01:38:17;99234.97;;;18.56;100.00
4745;BME280;2386;42.138;24.746;2023-05-29T01:40:42;99237.19;;;18.54;100.00
4745;BME280;2386;42.138;24.746;2023-05-29T01:43:08;99248.78;;;18.51;100.00
4745;BME280;2386;42.138;24.746;2023-05-29T01:45:34;99234.28;;;18.45;100.00
4745;BME280;2386;42.138;24.746;2023-05-29T01:48:00;99251.66;;;18.59;100.00
4745;BME280;2386;42.138;24.746;2023-05-29T01:50:27;99247.09;;;18.55;100.00
4745;BME280;2386;42.138;24.746;2023-05-29T01:52:54;99237.78;;;18.51;100.00
4745;BME280;2386;42.138;24.746;2023-05-29T01:55:19;99239.44;;;18.52;100.00
4745;BME280;2386;42.138;24.746;2023-05-29T01:57:45;99242.03;;;18.38;100.00
4745;BME280;2386;42.138;24.746;2023-05-29T02:00:12;99250.09;;;18.29;100.00
4745;BME280;2386;42.138;24.746;2023-05-29T02:02:38;99254.78;;;18.29;100.00
4745;BME280;2386;42.138;24.746;2023-05-29T02:05:05;99259.28;;;18.44;100.00
4745;BME280;2386;42.138;24.746;2023-05-29T02:07:30;99251.06;;;18.44;100.00
4745;BME280;2386;42.138;24.746;2023-05-29T02:09:56;99257.59;;;18.48;100.00
4745;BME280;2386;42.138;24.746;2023-05-29T02:12:21;99249.66;;;18.46;100.00
4745;BME280;2386;42.138;24.746;2023-05-29T02:14:47;99253.69;;;18.54;100.00
4745;BME280;2386;42.138;24.746;2023-05-29T02:17:13;99261.09;;;18.29;100.00
4745;BME280;2386;42.138;24.746;2023-05-29T02:19:40;99268.84;;;18.22;100.00
4745;BME280;2386;42.138;24.746;2023-05-29T02:22:05;99267.72;;;18.23;100.00
4745;BME280;2386;42.138;24.746;2023-05-29T02:24:30;99253.09;;;18.33;100.00
4745;BME280;2386;42.138;24.746;2023-05-29T02:26:56;99254.66;;;18.39;100.00
4745;BME280;2386;42.138;24.746;2023-05-29T02:29:21;99257.47;;;18.34;100.00
4745;BME280;2386;42.138;24.746;2023-05-29T02:31:47;99246.00;;;18.27;100.00
4745;BME280;2386;42.138;24.746;2023-05-29T02:34:14;99258.81;;;18.36;100.00
4745;BME280;2386;42.138;24.746;2023-05-29T02:36:39;99266.13;;;18.46;100.00
4745;BME280;2386;42.138;24.746;2023-05-29T02:39:05;99264.69;;;18.54;100.00
4745;BME280;2386;42.138;24.746;2023-05-29T02:41:31;99266.31;;;18.55;100.00
4745;BME280;2386;42.138;24.746;2023-05-29T02:43:56;99271.28;;;18.53;100.00
4745;BME280;2386;42.138;24.746;2023-05-29T02:46:22;99263.63;;;18.50;100.00
4745;BME280;2386;42.138;24.746;2023-05-29T02:48:47;99257.53;;;18.53;100.00
4745;BME280;2386;42.138;24.746;2023-05-29T02:51:13;99259.19;;;18.54;100.00
4745;BME280;2386;42.138;24.746;2023-05-29T02:53:39;99262.22;;;18.52;100.00
4745;BME280;2386;42.138;24.746;2023-05-29T02:56:06;99265.16;;;18.61;100.00
4745;BME280;2386;42.138;24.746;2023-05-29T02:58:33;99259.47;;;18.52;100.00
4745;BME280;2386;42.138;24.746;2023-05-29T03:01:00;99267.34;;;18.59;100.00
4745;BME280;2386;42.138;24.746;2023-05-29T03:03:27;99274.56;;;18.55;100.00
4745;BME280;2386;42.138;24.746;2023-05-29T03:05:53;99276.41;;;18.35;100.00
4745;BME280;2386;42.138;24.746;2023-05-29T03:08:18;99269.75;;;18.42;100.00
4745;BME280;2386;42.138;24.746;2023-05-29T03:10:44;99273.78;;;18.49;100.00
4745;BME280;2386;42.138;24.746;2023-05-29T03:13:10;99284.00;;;18.44;100.00
4745;BME280;2386;42.138;24.746;2023-05-29T03:15:35;99276.25;;;18.51;100.00
4745;BME280;2386;42.138;24.746;2023-05-29T03:18:00;99284.09;;;18.57;100.00
4745;BME280;2386;42.138;24.746;2023-05-29T03:20:26;99279.22;;;18.54;100.00
4745;BME280;2386;42.138;24.746;2023-05-29T03:22:53;99277.28;;;18.55;100.00
4745;BME280;2386;42.138;24.746;2023-05-29T03:25:20;99282.25;;;18.53;100.00
4745;BME280;2386;42.138;24.746;2023-05-29T03:27:45;99274.56;;;18.55;100.00
4745;BME280;2386;42.138;24.746;2023-05-29T03:30:11;99301.41;;;18.58;100.00
4745;BME280;2386;42.138;24.746;2023-05-29T03:32:37;99282.03;;;18.49;100.00
4745;BME280;2386;42.138;24.746;2023-05-29T03:35:02;99286.66;;;18.54;100.00
4745;BME280;2386;42.138;24.746;2023-05-29T03:37:29;99298.22;;;18.51;100.00
4745;BME280;2386;42.138;24.746;2023-05-29T03:39:54;99297.63;;;18.54;100.00
4745;BME280;2386;42.138;24.746;2023-05-29T03:42:20;99309.34;;;18.59;100.00
4745;BME280;2386;42.138;24.746;2023-05-29T03:44:46;99293.16;;;18.58;100.00
4745;BME280;2386;42.138;24.746;2023-05-29T03:47:11;99300.72;;;18.47;100.00
4745;BME280;2386;42.138;24.746;2023-05-29T03:49:36;99301.50;;;18.53;100.00
4745;BME280;2386;42.138;24.746;2023-05-29T03:52:02;99298.22;;;18.51;100.00
4745;BME280;2386;42.138;24.746;2023-05-29T03:54:28;99297.06;;;18.57;100.00
4745;BME280;2386;42.138;24.746;2023-05-29T03:56:53;99293.78;;;18.55;100.00
4745;BME280;2386;42.138;24.746;2023-05-29T03:59:18;99297.69;;;18.49;100.00
4745;BME280;2386;42.138;24.746;2023-05-29T04:01:44;99301.53;;;18.48;100.00
4745;BME280;2386;42.138;24.746;2023-05-29T04:04:09;99298.28;;;18.46;100.00
4745;BME280;2386;42.138;24.746;2023-05-29T04:06:35;99304.78;;;18.55;100.00
4745;BME280;2386;42.138;24.746;2023-05-29T04:09:04;99313.63;;;18.47;100.00
4745;BME280;2386;42.138;24.746;2023-05-29T04:11:32;99315.84;;;18.45;100.00
4745;BME280;2386;42.138;24.746;2023-05-29T04:14:00;99312.91;;;18.36;100.00
4745;BME280;2386;42.138;24.746;2023-05-29T04:16:25;99320.25;;;18.46;100.00
4745;BME280;2386;42.138;24.746;2023-05-29T04:18:51;99310.78;;;18.57;100.00
4745;BME280;2386;42.138;24.746;2023-05-29T04:21:16;99314.13;;;18.54;100.00
4745;BME280;2386;42.138;24.746;2023-05-29T04:23:41;99320.16;;;18.56;100.00
4745;BME280;2386;42.138;24.746;2023-05-29T04:26:07;99325.59;;;18.61;100.00
4745;BME280;2386;42.138;24.746;2023-05-29T04:28:32;99324.28;;;18.53;100.00
4745;BME280;2386;42.138;24.746;2023-05-29T04:30:58;99327.78;;;18.59;100.00
4745;BME280;2386;42.138;24.746;2023-05-29T04:33:24;99325.03;;;18.59;100.00
4745;BME280;2386;42.138;24.746;2023-05-29T04:35:50;99330.16;;;18.70;100.00
4745;BME280;2386;42.138;24.746;2023-05-29T04:38:15;99338.94;;;18.73;100.00
4745;BME280;2386;42.138;24.746;2023-05-29T04:40:44;99347.34;;;18.81;100.00
4745;BME280;2386;42.138;24.746;2023-05-29T04:43:10;99338.44;;;18.65;100.00
4745;BME280;2386;42.138;24.746;2023-05-29T04:45:35;99333.41;;;18.49;100.00
4745;BME280;2386;42.138;24.746;2023-05-29T04:48:03;99342.59;;;18.63;100.00
4745;BME280;2386;42.138;24.746;2023-05-29T04:50:29;99339.88;;;18.58;100.00
4745;BME280;2386;42.138;24.746;2023-05-29T04:52:56;99351.94;;;18.62;100.00
4745;BME280;2386;42.138;24.746;2023-05-29T04:55:22;99346.41;;;18.67;100.00
4745;BME280;2386;42.138;24.746;2023-05-29T04:57:48;99342.63;;;18.58;100.00
4745;BME280;2386;42.138;24.746;2023-05-29T05:00:14;99358.56;;;18.61;100.00
4745;BME280;2386;42.138;24.746;2023-05-29T05:02:42;99356.69;;;18.56;100.00
4745;BME280;2386;42.138;24.746;2023-05-29T05:05:09;99351.38;;;18.60;100.00
4745;BME280;2386;42.138;24.746;2023-05-29T05:07:34;99359.72;;;18.55;100.00
4745;BME280;2386;42.138;24.746;2023-05-29T05:10:00;99360.13;;;18.67;100.00
4745;BME280;2386;42.138;24.746;2023-05-29T05:12:26;99360.56;;;18.79;100.00
4745;BME280;2386;42.138;24.746;2023-05-29T05:14:51;99352.66;;;18.73;100.00
4745;BME280;2386;42.138;24.746;2023-05-29T05:17:16;99355.13;;;18.74;100.00
4745;BME280;2386;42.138;24.746;2023-05-29T05:19:42;99368.53;;;18.81;100.00
4745;BME280;2386;42.138;24.746;2023-05-29T05:22:07;99358.28;;;18.86;100.00
4745;BME280;2386;42.138;24.746;2023-05-29T05:24:33;99363.78;;;18.86;100.00
4745;BME280;2386;42.138;24.746;2023-05-29T05:26:59;99372.09;;;18.81;100.00
4745;BME280;2386;42.138;24.746;2023-05-29T05:29:25;99363.84;;;18.81;100.00
4745;BME280;2386;42.138;24.746;2023-05-29T05:31:50;99369.09;;;18.78;100.00
4745;BME280;2386;42.138;24.746;2023-05-29T05:34:16;99371.22;;;18.86;100.00
4745;BME280;2386;42.138;24.746;2023-05-29T05:36:41;99371.94;;;18.96;100.00
4745;BME280;2386;42.138;24.746;2023-05-29T05:39:07;99374.72;;;18.91;100.00
4745;BME280;2386;42.138;24.746;2023-05-29T05:41:32;99373.09;;;18.90;100.00
4745;BME280;2386;42.138;24.746;2023-05-29T05:43:58;99384.50;;;19.02;100.00
4745;BME280;2386;42.138;24.746;2023-05-29T05:46:23;99391.47;;;19.19;100.00
4745;BME280;2386;42.138;24.746;2023-05-29T05:48:48;99380.88;;;19.07;100.00
4745;BME280;2386;42.138;24.746;2023-05-29T05:51:14;99387.59;;;19.20;100.00
4745;BME280;2386;42.138;24.746;2023-05-29T05:53:40;99383.75;;;19.40;100.00
4745;BME280;2386;42.138;24.746;2023-05-29T05:56:05;99379.44;;;19.33;100.00
4745;BME280;2386;42.138;24.746;2023-05-29T05:58:30;99381.84;;;19.40;100.00
4745;BME280;2386;42.138;24.746;2023-05-29T06:00:56;99382.78;;;19.54;100.00
4745;BME280;2386;42.138;24.746;2023-05-29T06:03:22;99393.06;;;19.67;100.00
4745;BME280;2386;42.138;24.746;2023-05-29T06:09:09;99376.09;;;19.60;100.00
4745;BME280;2386;42.138;24.746;2023-05-29T06:11:36;99376.69;;;19.57;100.00
4745;BME280;2386;42.138;24.746;2023-05-29T06:14:03;99375.50;;;19.63;100.00
4745;BME280;2386;42.138;24.746;2023-05-29T06:16:28;99370.75;;;19.69;100.00
4745;BME280;2386;42.138;24.746;2023-05-29T06:18:54;99372.31;;;19.75;100.00
4745;BME280;2386;42.138;24.746;2023-05-29T06:21:19;99381.53;;;19.84;100.00
4745;BME280;2386;42.138;24.746;2023-05-29T06:23:45;99389.81;;;20.03;100.00
4745;BME280;2386;42.138;24.746;2023-05-29T06:26:11;99386.41;;;20.06;100.00
4745;BME280;2386;42.138;24.746;2023-05-29T06:28:37;99371.66;;;20.02;100.00
4745;BME280;2386;42.138;24.746;2023-05-29T06:31:03;99384.31;;;20.17;100.00
4745;BME280;2386;42.138;24.746;2023-05-29T06:33:28;99380.88;;;20.25;100.00
4745;BME280;2386;42.138;24.746;2023-05-29T06:35:55;99386.53;;;20.33;100.00
4745;BME280;2386;42.138;24.746;2023-05-29T06:38:21;99386.00;;;20.50;100.00
4745;BME280;2386;42.138;24.746;2023-05-29T06:40:51;99380.97;;;20.39;100.00
4745;BME280;2386;42.138;24.746;2023-05-29T06:43:19;99402.91;;;20.62;100.00
4745;BME280;2386;42.138;24.746;2023-05-29T06:45:45;99386.34;;;20.62;100.00
4745;BME280;2386;42.138;24.746;2023-05-29T06:48:10;99386.59;;;20.80;100.00
4745;BME280;2386;42.138;24.746;2023-05-29T06:50:35;99395.97;;;20.92;100.00
4745;BME280;2386;42.138;24.746;2023-05-29T06:53:01;99399.47;;;20.98;100.00
4745;BME280;2386;42.138;24.746;2023-05-29T06:55:26;99387.00;;;21.00;100.00
4745;BME280;2386;42.138;24.746;2023-05-29T06:58:01;99392.31;;;21.11;100.00
4745;BME280;2386;42.138;24.746;2023-05-29T07:00:27;99379.75;;;20.77;100.00
4745;BME280;2386;42.138;24.746;2023-05-29T07:02:53;99390.88;;;20.99;100.00
4745;BME280;2386;42.138;24.746;2023-05-29T07:05:18;99389.56;;;21.11;100.00
4745;BME280;2386;42.138;24.746;2023-05-29T07:07:46;99391.81;;;21.09;100.00
4745;BME280;2386;42.138;24.746;2023-05-29T07:10:12;99379.97;;;21.08;100.00
4745;BME280;2386;42.138;24.746;2023-05-29T07:12:38;99389.81;;;21.28;100.00
4745;BME280;2386;42.138;24.746;2023-05-29T07:15:04;99396.03;;;21.47;100.00
4745;BME280;2386;42.138;24.746;2023-05-29T07:17:30;99393.78;;;21.49;100.00
4745;BME280;2386;42.138;24.746;2023-05-29T07:23:17;99389.41;;;21.35;100.00
4745;BME280;2386;42.138;24.746;2023-05-29T07:25:43;99408.72;;;21.48;99.69
4745;BME280;2386;42.138;24.746;2023-05-29T07:28:12;99390.13;;;21.40;97.99
4745;BME280;2386;42.138;24.746;2023-05-29T07:30:37;99396.66;;;21.30;100.00
4745;BME280;2386;42.138;24.746;2023-05-29T07:33:02;99404.84;;;21.36;97.02
4745;BME280;2386;42.138;24.746;2023-05-29T07:35:28;99402.16;;;21.44;97.71
4745;BME280;2386;42.138;24.746;2023-05-29T07:37:53;99389.50;;;21.43;97.18
4745;BME280;2386;42.138;24.746;2023-05-29T07:40:19;99402.56;;;21.51;95.84
4745;BME280;2386;42.138;24.746;2023-05-29T07:42:46;99403.16;;;21.62;96.50
4745;BME280;2386;42.138;24.746;2023-05-29T07:45:11;99411.41;;;21.76;96.87
4745;BME280;2386;42.138;24.746;2023-05-29T07:47:36;99411.06;;;21.91;95.47
4745;BME280;2386;42.138;24.746;2023-05-29T07:50:02;99408.94;;;22.02;95.84
4745;BME280;2386;42.138;24.746;2023-05-29T07:52:27;99402.28;;;21.89;95.73
4745;BME280;2386;42.138;24.746;2023-05-29T07:58:15;99412.09;;;21.95;97.17
4745;BME280;2386;42.138;24.746;2023-05-29T08:00:44;99413.47;;;22.20;99.07
4745;BME280;2386;42.138;24.746;2023-05-29T08:03:09;99399.69;;;22.28;93.14
4745;BME280;2386;42.138;24.746;2023-05-29T08:05:35;99402.66;;;22.32;90.13
4745;BME280;2386;42.138;24.746;2023-05-29T08:08:00;99410.50;;;22.39;90.48
4745;BME280;2386;42.138;24.746;2023-05-29T08:10:26;99395.69;;;22.35;90.65
4745;BME280;2386;42.138;24.746;2023-05-29T08:12:51;99394.50;;;22.49;92.23
4745;BME280;2386;42.138;24.746;2023-05-29T08:15:17;99397.81;;;22.60;91.14
4745;BME280;2386;42.138;24.746;2023-05-29T08:17:42;99401.09;;;22.84;95.58
4745;BME280;2386;42.138;24.746;2023-05-29T08:20:08;99398.94;;;22.81;86.03
4745;BME280;2386;42.138;24.746;2023-05-29T08:22:35;99404.84;;;22.88;84.80
4745;BME280;2386;42.138;24.746;2023-05-29T08:25:00;99400.13;;;22.89;83.53
4745;BME280;2386;42.138;24.746;2023-05-29T08:27:26;99391.50;;;22.90;84.84
4745;BME280;2386;42.138;24.746;2023-05-29T08:29:51;99408.38;;;23.20;88.36
4745;BME280;2386;42.138;24.746;2023-05-29T08:32:17;99397.47;;;23.15;85.81
4745;BME280;2386;42.138;24.746;2023-05-29T08:34:42;99401.13;;;23.33;84.12
4745;BME280;2386;42.138;24.746;2023-05-29T08:37:10;99397.22;;;23.34;81.38
4745;BME280;2386;42.138;24.746;2023-05-29T08:42:47;99389.69;;;23.74;77.85
4745;BME280;2386;42.138;24.746;2023-05-29T08:45:13;99386.41;;;23.89;76.36
4745;BME280;2386;42.138;24.746;2023-05-29T08:47:40;99393.59;;;24.07;77.98
4745;BME280;2386;42.138;24.746;2023-05-29T08:50:07;99379.25;;;24.22;80.55
4745;BME280;2386;42.138;24.746;2023-05-29T08:52:34;99378.28;;;24.18;75.61
4745;BME280;2386;42.138;24.746;2023-05-29T08:55:01;99383.19;;;24.39;75.14
4745;BME280;2386;42.138;24.746;2023-05-29T08:57:30;99378.47;;;24.39;71.80
4745;BME280;2386;42.138;24.746;2023-05-29T08:59:56;99374.06;;;24.47;69.22
4745;BME280;2386;42.138;24.746;2023-05-29T09:02:22;99376.34;;;24.45;68.02
4745;BME280;2386;42.138;24.746;2023-05-29T09:04:48;99371.13;;;24.35;66.82
4745;BME280;2386;42.138;24.746;2023-05-29T09:07:19;99379.88;;;24.54;71.47
4745;BME280;2386;42.138;24.746;2023-05-29T09:09:46;99373.16;;;24.64;72.75
4745;BME280;2386;42.138;24.746;2023-05-29T09:12:16;99378.38;;;24.74;72.29
4745;BME280;2386;42.138;24.746;2023-05-29T09:18:10;99376.44;;;24.66;71.83
4745;BME280;2386;42.138;24.746;2023-05-29T09:20:35;99385.59;;;24.57;69.87
4745;BME280;2386;42.138;24.746;2023-05-29T09:23:05;99377.00;;;24.42;66.24
4745;BME280;2386;42.138;24.746;2023-05-29T09:25:32;99374.56;;;24.32;61.92
4745;BME280;2386;42.138;24.746;2023-05-29T09:28:08;99376.69;;;24.35;64.20
4745;BME280;2386;42.138;24.746;2023-05-29T09:30:35;99371.44;;;24.42;71.60
4745;BME280;2386;42.138;24.746;2023-05-29T09:33:01;99372.59;;;24.41;75.08
4745;BME280;2386;42.138;24.746;2023-05-29T09:35:32;99373.41;;;24.33;76.15
4745;BME280;2386;42.138;24.746;2023-05-29T09:37:58;99378.16;;;24.32;77.51
4745;BME280;2386;42.138;24.746;2023-05-29T09:40:23;99374.38;;;24.19;72.80
4745;BME280;2386;42.138;24.746;2023-05-29T09:42:49;99370.78;;;24.10;76.48
4745;BME280;2386;42.138;24.746;2023-05-29T09:45:17;99374.03;;;24.12;81.69
4745;BME280;2386;42.138;24.746;2023-05-29T09:47:43;99380.72;;;24.03;72.76
4745;BME280;2386;42.138;24.746;2023-05-29T09:50:18;99372.06;;;23.87;69.55
4745;BME280;2386;42.138;24.746;2023-05-29T09:52:45;99372.91;;;23.87;68.50
4745;BME280;2386;42.138;24.746;2023-05-29T09:55:15;99358.72;;;23.72;69.61
4745;BME280;2386;42.138;24.746;2023-05-29T09:57:46;99352.69;;;23.70;67.53
4745;BME280;2386;42.138;24.746;2023-05-29T10:00:12;99356.44;;;23.74;68.07
4745;BME280;2386;42.138;24.746;2023-05-29T10:02:39;99348.94;;;23.83;67.01
4745;BME280;2386;42.138;24.746;2023-05-29T10:05:06;99343.88;;;24.02;73.44
4745;BME280;2386;42.138;24.746;2023-05-29T10:07:35;99351.22;;;24.15;68.69
4745;BME280;2386;42.138;24.746;2023-05-29T10:10:03;99344.72;;;24.29;70.41
4745;BME280;2386;42.138;24.746;2023-05-29T10:12:32;99330.19;;;24.32;67.37
4745;BME280;2386;42.138;24.746;2023-05-29T10:14:59;99335.38;;;24.50;66.18
4745;BME280;2386;42.138;24.746;2023-05-29T10:17:32;99342.34;;;24.65;64.45
4745;BME280;2386;42.138;24.746;2023-05-29T10:20:00;99336.88;;;24.86;73.30
4745;BME280;2386;42.138;24.746;2023-05-29T10:22:27;99333.75;;;24.96;65.88
4745;BME280;2386;42.138;24.746;2023-05-29T10:24:53;99334.84;;;25.12;71.40
4745;BME280;2386;42.138;24.746;2023-05-29T10:27:20;99340.25;;;25.09;59.42
4745;BME280;2386;42.138;24.746;2023-05-29T10:29:50;99334.47;;;25.23;69.47
4745;BME280;2386;42.138;24.746;2023-05-29T10:38:13;99333.09;;;25.29;61.49
4745;BME280;2386;42.138;24.746;2023-05-29T10:40:40;99323.06;;;25.15;57.62
4745;BME280;2386;42.138;24.746;2023-05-29T10:43:06;99326.00;;;25.19;55.70
4745;BME280;2386;42.138;24.746;2023-05-29T10:50:42;99320.38;;;25.48;60.90
4745;BME280;2386;42.138;24.746;2023-05-29T10:53:15;99314.44;;;25.59;58.02
4745;BME280;2386;42.138;24.746;2023-05-29T10:55:44;99318.09;;;25.50;57.00
4745;BME280;2386;42.138;24.746;2023-05-29T10:58:18;99320.50;;;25.81;60.14
4745;BME280;2386;42.138;24.746;2023-05-29T11:00:45;99317.72;;;25.81;55.46
4745;BME280;2386;42.138;24.746;2023-05-29T11:03:21;99314.34;;;25.76;54.10
4745;BME280;2386;42.138;24.746;2023-05-29T11:06:01;99326.94;;;25.94;54.48
4745;BME280;2386;42.138;24.746;2023-05-29T11:08:44;99323.63;;;25.80;53.70
4745;BME280;2386;42.138;24.746;2023-05-29T11:11:14;99314.75;;;25.86;55.61
4745;BME280;2386;42.138;24.746;2023-05-29T11:13:40;99300.09;;;25.98;60.40
4745;BME280;2386;42.138;24.746;2023-05-29T11:16:19;99307.44;;;25.82;56.94
4745;BME280;2386;42.138;24.746;2023-05-29T11:18:47;99309.81;;;25.92;62.81
4745;BME280;2386;42.138;24.746;2023-05-29T11:24:23;99279.50;;;26.32;55.48
4745;BME280;2386;42.138;24.746;2023-05-29T11:26:54;99291.38;;;26.66;53.36
4745;BME280;2386;42.138;24.746;2023-05-29T11:29:27;99290.69;;;26.81;52.09
4745;BME280;2386;42.138;24.746;2023-05-29T11:43:19;99294.53;;;27.37;50.85
4745;BME280;2386;42.138;24.746;2023-05-29T11:56:07;99271.78;;;27.35;50.36
4745;BME280;2386;42.138;24.746;2023-05-29T11:58:43;99280.28;;;27.14;50.29
4745;BME280;2386;42.138;24.746;2023-05-29T12:01:29;99262.19;;;26.96;52.13
4745;BME280;2386;42.138;24.746;2023-05-29T12:03:54;99251.03;;;27.08;53.73
4745;BME280;2386;42.138;24.746;2023-05-29T12:06:35;99268.53;;;27.33;50.00
4745;BME280;2386;42.138;24.746;2023-05-29T12:09:03;99253.84;;;27.61;49.66
4745;BME280;2386;42.138;24.746;2023-05-29T12:11:30;99248.09;;;27.41;49.58
4745;BME280;2386;42.138;24.746;2023-05-29T12:13:57;99247.56;;;27.64;51.28
4745;BME280;2386;42.138;24.746;2023-05-29T12:16:23;99246.81;;;27.79;48.91
4745;BME280;2386;42.138;24.746;2023-05-29T12:18:53;99248.41;;;28.36;48.74
4745;BME280;2386;42.138;24.746;2023-05-29T12:21:20;99257.31;;;29.04;47.33
4745;BME280;2386;42.138;24.746;2023-05-29T12:23:52;99260.63;;;29.26;45.31
4745;BME280;2386;42.138;24.746;2023-05-29T12:26:24;99261.59;;;29.33;46.36
4745;BME280;2386;42.138;24.746;2023-05-29T12:28:52;99261.63;;;29.18;44.25
4745;BME280;2386;42.138;24.746;2023-05-29T12:31:30;99275.59;;;29.02;45.49
4745;BME280;2386;42.138;24.746;2023-05-29T12:34:10;99271.59;;;28.84;48.70
4745;BME280;2386;42.138;24.746;2023-05-29T12:36:40;99260.75;;;28.66;45.23
4745;BME280;2386;42.138;24.746;2023-05-29T12:39:07;99257.22;;;28.38;46.62
4745;BME280;2386;42.138;24.746;2023-05-29T12:41:37;99252.81;;;28.37;49.01
4745;BME280;2386;42.138;24.746;2023-05-29T12:44:04;99252.06;;;28.24;48.91
4745;BME280;2386;42.138;24.746;2023-05-29T12:49:13;99240.69;;;28.01;46.81
4745;BME280;2386;42.138;24.746;2023-05-29T12:51:43;99236.31;;;28.16;47.16
4745;BME280;2386;42.138;24.746;2023-05-29T12:54:14;99236.03;;;28.21;49.33
4745;BME280;2386;42.138;24.746;2023-05-29T12:56:43;99243.59;;;28.21;49.56
4745;BME280;2386;42.138;24.746;2023-05-29T12:59:11;99232.88;;;28.07;48.58
4745;BME280;2386;42.138;24.746;2023-05-29T13:01:37;99231.16;;;28.02;51.18
4745;BME280;2386;42.138;24.746;2023-05-29T13:06:47;99236.19;;;27.57;55.61
4745;BME280;2386;42.138;24.746;2023-05-29T13:09:12;99232.09;;;27.26;49.64
4745;BME280;2386;42.138;24.746;2023-05-29T13:11:38;99237.69;;;27.02;54.80
4745;BME280;2386;42.138;24.746;2023-05-29T13:14:06;99233.72;;;26.78;52.21
4745;BME280;2386;42.138;24.746;2023-05-29T13:16:35;99226.44;;;26.62;53.38
4745;BME280;2386;42.138;24.746;2023-05-29T13:19:01;99214.97;;;26.51;56.99
4745;BME280;2386;42.138;24.746;2023-05-29T13:21:26;99223.09;;;26.56;54.15
4745;BME280;2386;42.138;24.746;2023-05-29T13:24:00;99235.25;;;26.76;55.74
4745;BME280;2386;42.138;24.746;2023-05-29T13:26:26;99210.88;;;26.85;52.80
4745;BME280;2386;42.138;24.746;2023-05-29T13:28:52;99222.25;;;27.16;54.80
4745;BME280;2386;42.138;24.746;2023-05-29T13:31:20;99225.59;;;27.22;52.25
4745;BME280;2386;42.138;24.746;2023-05-29T13:33:46;99214.69;;;27.29;51.20
4745;BME280;2386;42.138;24.746;2023-05-29T13:39:34;99203.78;;;27.64;52.97
4745;BME280;2386;42.138;24.746;2023-05-29T13:41:59;99222.44;;;27.76;51.80
4745;BME280;2386;42.138;24.746;2023-05-29T13:44:25;99208.03;;;27.74;53.29
4745;BME280;2386;42.138;24.746;2023-05-29T13:46:54;99205.84;;;29.40;47.01
4745;BME280;2386;42.138;24.746;2023-05-29T13:49:23;99213.44;;;32.46;41.14
4745;BME280;2386;42.138;24.746;2023-05-29T13:51:51;99226.59;;;34.99;36.50
4745;BME280;2386;42.138;24.746;2023-05-29T13:54:18;99221.69;;;36.33;32.10
4745;BME280;2386;42.138;24.746;2023-05-29T14:03:22;99241.84;;;39.07;28.47
4745;BME280;2386;42.138;24.746;2023-05-29T14:05:51;99235.84;;;37.64;29.64
4745;BME280;2386;42.138;24.746;2023-05-29T14:08:16;99258.09;;;36.17;33.70
4745;BME280;2386;42.138;24.746;2023-05-29T14:10:41;99246.34;;;34.74;36.33
4745;BME280;2386;42.138;24.746;2023-05-29T14:13:07;99259.19;;;32.91;39.59
4745;BME280;2386;42.138;24.746;2023-05-29T14:15:32;99252.41;;;31.51;43.23
4745;BME280;2386;42.138;24.746;2023-05-29T14:17:58;99243.44;;;30.39;46.65